Newhall, West Virginia
Current Conditions -  °F | °C
As of 11:15 PM on Thursday 20 Nov 2014 (Local Time) from KJFZ Reporting Station
Clear Clear  
Wind Chill: 24°   Ceiling: Unl
Heat Index: 32°   Visibility: 10mi
Dew Point: 16°   Wind: 9mph
Humidity: 52%   Direction: 290°WNW
Pressure: 30.14"   Gusts: NA
Location:  37.26°N, 81.62°W
Report Text: KJFZ 210415Z AUTO 29008KT 10SM CLR 00/M09 A3014 RMK AO2 T00001089
Loading
Personal Weather Stations






























Interactive Weather Map New forecast layout! Learn more

10-Day Weather Forecast

Advertisements
Track Severe Weather on mobile